createdAt,value
2022-08-26T00:00:21.545Z,0
2022-08-26T00:01:31.294Z,0
2022-08-26T00:02:25.431Z,0
2022-08-26T00:03:21.327Z,0
2022-08-26T00:04:21.359Z,0
2022-08-26T00:05:20.996Z,0
2022-08-26T00:06:25.454Z,0
2022-08-26T00:07:20.493Z,0
2022-08-26T00:08:20.774Z,0
2022-08-26T00:09:23.206Z,0
2022-08-26T00:10:25.831Z,0
2022-08-26T00:11:31.237Z,0
2022-08-26T00:12:36.093Z,0
2022-08-26T00:13:24.021Z,0
2022-08-26T00:14:20.804Z,0
2022-08-26T00:15:20.709Z,0
2022-08-26T00:16:20.697Z,0
2022-08-26T00:17:21.884Z,0
2022-08-26T00:18:33.178Z,0
2022-08-26T00:19:22.614Z,0
2022-08-26T00:20:20.907Z,0
2022-08-26T00:21:20.555Z,0
2022-08-26T00:22:30.007Z,0
2022-08-26T00:23:24.177Z,0
2022-08-26T00:24:20.450Z,0
2022-08-26T00:25:23.949Z,0
2022-08-26T00:26:20.663Z,0
2022-08-26T00:27:22.963Z,0
2022-08-26T00:28:23.991Z,0
2022-08-26T00:29:23.762Z,0
2022-08-26T00:30:28.961Z,0
2022-08-26T00:31:21.208Z,0
2022-08-26T00:32:22.510Z,0
2022-08-26T00:33:23.249Z,0
2022-08-26T00:34:24.028Z,0
2022-08-26T00:35:20.610Z,0
2022-08-26T00:36:31.900Z,0
2022-08-26T00:37:23.002Z,0
2022-08-26T00:38:20.585Z,0
2022-08-26T00:39:22.687Z,0
2022-08-26T00:40:20.563Z,0
2022-08-26T00:41:21.804Z,0
2022-08-26T00:42:20.394Z,0
2022-08-26T00:43:24.523Z,0
2022-08-26T00:44:20.554Z,0
2022-08-26T00:45:20.294Z,0
2022-08-26T00:46:21.563Z,0
2022-08-26T00:47:24.298Z,0
2022-08-26T00:48:20.771Z,0
2022-08-26T00:49:21.395Z,0
2022-08-26T00:50:22.652Z,0
2022-08-26T00:51:20.290Z,0
2022-08-26T00:52:22.895Z,0
2022-08-26T00:53:20.512Z,0
2022-08-26T00:54:20.857Z,0
2022-08-26T00:55:34.490Z,0
2022-08-26T00:56:20.235Z,0
2022-08-26T00:57:24.167Z,0
2022-08-26T00:58:20.780Z,0
2022-08-26T00:59:22.626Z,0
2022-08-26T01:00:20.724Z,0
2022-08-26T01:01:25.223Z,0
2022-08-26T01:02:27.851Z,0
2022-08-26T01:03:20.682Z,0
2022-08-26T01:04:20.185Z,0
2022-08-26T01:05:21.066Z,0
2022-08-26T01:06:20.430Z,0
2022-08-26T01:07:21.354Z,0
2022-08-26T01:08:20.423Z,0
2022-08-26T01:09:20.174Z,0
2022-08-26T01:10:20.444Z,0
2022-08-26T01:11:21.777Z,0
2022-08-26T01:12:27.173Z,0
2022-08-26T01:13:22.263Z,0
2022-08-26T01:14:23.377Z,0
2022-08-26T01:15:21.325Z,0
2022-08-26T01:16:20.655Z,0
2022-08-26T01:17:20.623Z,0
2022-08-26T01:18:20.368Z,0
2022-08-26T01:19:20.847Z,0
2022-08-26T01:20:20.451Z,0
2022-08-26T01:21:22.201Z,0
2022-08-26T01:22:20.347Z,0
2022-08-26T01:23:24.110Z,0
2022-08-26T01:24:21.148Z,0
2022-08-26T01:25:20.576Z,0
2022-08-26T01:26:28.281Z,0
2022-08-26T01:27:20.056Z,0
2022-08-26T01:28:22.130Z,0
2022-08-26T01:29:20.564Z,0
2022-08-26T01:30:20.777Z,0
2022-08-26T01:31:22.307Z,0
2022-08-26T01:32:20.670Z,0
2022-08-26T01:33:20.573Z,0
2022-08-26T01:34:52.099Z,0
2022-08-26T01:35:21.102Z,0
2022-08-26T01:36:23.135Z,0
2022-08-26T01:37:23.476Z,0
2022-08-26T01:38:20.105Z,0
2022-08-26T01:39:20.222Z,0
2022-08-26T01:40:21.530Z,0
2022-08-26T01:41:32.181Z,0
2022-08-26T01:42:20.113Z,0
2022-08-26T01:43:22.881Z,0
2022-08-26T01:44:20.214Z,0
2022-08-26T01:45:20.222Z,0
2022-08-26T01:46:20.468Z,0
2022-08-26T01:47:20.227Z,0
2022-08-26T01:48:20.198Z,0
2022-08-26T01:49:21.017Z,0
2022-08-26T01:50:33.303Z,0
2022-08-26T01:51:22.616Z,0
2022-08-26T01:52:20.264Z,0
2022-08-26T01:53:21.427Z,0
2022-08-26T01:54:25.174Z,0
2022-08-26T01:55:37.344Z,0
2022-08-26T01:56:20.341Z,0
2022-08-26T01:57:20.442Z,0
2022-08-26T01:58:20.907Z,0
2022-08-26T01:59:22.409Z,0
2022-08-26T02:00:23.395Z,0
2022-08-26T02:01:20.745Z,0
2022-08-26T02:02:20.364Z,0
2022-08-26T02:03:21.588Z,0
2022-08-26T02:04:20.317Z,0
2022-08-26T02:05:20.161Z,0
2022-08-26T02:06:21.443Z,0
2022-08-26T02:07:23.654Z,0
2022-08-26T02:08:27.577Z,0
2022-08-26T02:09:22.513Z,0
2022-08-26T02:10:22.900Z,0
2022-08-26T02:11:23.195Z,0
2022-08-26T02:12:21.470Z,0
2022-08-26T02:13:20.606Z,0
2022-08-26T02:14:20.389Z,0
2022-08-26T02:15:23.621Z,0
2022-08-26T02:16:20.371Z,0
2022-08-26T02:17:23.602Z,0
2022-08-26T02:18:22.338Z,0
2022-08-26T02:19:25.886Z,0
2022-08-26T02:20:22.214Z,0
2022-08-26T02:21:19.999Z,0
2022-08-26T02:22:20.503Z,0
2022-08-26T02:23:20.097Z,0
2022-08-26T02:24:20.402Z,0
2022-08-26T02:25:19.744Z,0
2022-08-26T02:26:25.130Z,0
2022-08-26T02:27:19.961Z,0
2022-08-26T02:28:21.902Z,0
2022-08-26T02:29:23.696Z,0
2022-08-26T02:30:21.991Z,0
2022-08-26T02:31:20.442Z,0
2022-08-26T02:32:25.695Z,0
2022-08-26T02:33:21.528Z,0
2022-08-26T02:34:22.192Z,0
2022-08-26T02:35:25.225Z,0
2022-08-26T02:36:20.223Z,0
2022-08-26T02:37:25.313Z,0
2022-08-26T02:38:20.526Z,0
2022-08-26T02:39:26.771Z,0
2022-08-26T02:40:23.882Z,0
2022-08-26T02:41:20.243Z,0
2022-08-26T02:42:20.341Z,0
2022-08-26T02:43:23.816Z,0
2022-08-26T02:44:20.583Z,0
2022-08-26T02:45:27.861Z,0
2022-08-26T02:46:34.402Z,0
2022-08-26T02:47:20.540Z,0
2022-08-26T02:48:21.243Z,0
2022-08-26T02:49:22.426Z,0
2022-08-26T02:50:20.915Z,0
2022-08-26T02:51:20.286Z,0
2022-08-26T02:52:20.483Z,0
2022-08-26T02:53:27.047Z,0
2022-08-26T02:54:20.545Z,0
2022-08-26T02:55:20.047Z,0
2022-08-26T02:56:20.693Z,0
2022-08-26T02:57:19.868Z,0
2022-08-26T02:58:19.845Z,0
2022-08-26T02:59:19.770Z,0
2022-08-26T03:00:19.502Z,0
2022-08-26T03:01:21.370Z,0
2022-08-26T03:02:20.787Z,0
2022-08-26T03:03:22.462Z,0
2022-08-26T03:04:21.169Z,0
2022-08-26T03:05:20.682Z,0
2022-08-26T03:06:20.121Z,0
2022-08-26T03:07:19.980Z,0
2022-08-26T03:08:19.983Z,0
2022-08-26T03:09:28.105Z,0
2022-08-26T03:10:19.692Z,0
2022-08-26T03:11:20.624Z,0
2022-08-26T03:12:21.222Z,0
2022-08-26T03:13:20.133Z,0
2022-08-26T03:14:20.714Z,0
2022-08-26T03:15:24.948Z,0
2022-08-26T03:16:19.894Z,0
2022-08-26T03:17:19.654Z,0
2022-08-26T03:18:19.390Z,0
2022-08-26T03:19:21.940Z,0
2022-08-26T03:20:22.638Z,0
2022-08-26T03:21:20.715Z,0
2022-08-26T03:22:22.682Z,0
2022-08-26T03:23:20.705Z,0
2022-08-26T03:24:19.676Z,0
2022-08-26T03:25:19.613Z,0
2022-08-26T03:26:19.408Z,0
2022-08-26T03:27:19.854Z,0
2022-08-26T03:28:24.049Z,0
2022-08-26T03:29:19.471Z,0
2022-08-26T03:30:22.454Z,0
2022-08-26T03:31:19.691Z,0
2022-08-26T03:32:19.306Z,0
2022-08-26T03:33:19.754Z,0
2022-08-26T03:50:24.806Z,4
2022-08-26T03:51:23.532Z,8
2022-08-26T03:52:19.828Z,8
2022-08-26T03:53:24.384Z,12
2022-08-26T03:54:19.809Z,12
2022-08-26T03:55:20.233Z,16
2022-08-26T03:56:20.308Z,20
2022-08-26T03:57:24.327Z,20
2022-08-26T03:58:19.776Z,24
2022-08-26T03:59:20.296Z,28
2022-08-26T04:00:23.115Z,36
2022-08-26T04:01:23.465Z,36
2022-08-26T04:02:21.316Z,44
2022-08-26T04:03:25.331Z,52
2022-08-26T04:04:27.436Z,60
2022-08-26T04:05:20.689Z,64
2022-08-26T04:06:21.927Z,76
2022-08-26T04:07:20.230Z,84
2022-08-26T04:08:19.951Z,92
2022-08-26T04:09:20.100Z,108
2022-08-26T04:10:31.244Z,120
2022-08-26T04:11:20.468Z,128
2022-08-26T04:12:20.092Z,140
2022-08-26T04:13:20.842Z,152
2022-08-26T04:14:24.454Z,172
2022-08-26T04:15:22.650Z,184
2022-08-26T04:16:21.656Z,204
2022-08-26T04:17:21.048Z,220
2022-08-26T04:18:20.394Z,236
2022-08-26T04:19:20.425Z,256
2022-08-26T04:20:22.972Z,276
2022-08-26T04:21:22.911Z,296
2022-08-26T04:22:31.666Z,320
2022-08-26T04:23:22.110Z,340
2022-08-26T04:24:20.031Z,368
2022-08-26T04:25:20.569Z,388
2022-08-26T04:26:19.905Z,416
2022-08-26T04:27:20.924Z,444
2022-08-26T04:28:20.109Z,472
2022-08-26T04:29:19.561Z,504
2022-08-26T04:30:21.420Z,532
2022-08-26T04:31:21.227Z,560
2022-08-26T04:32:20.732Z,592
2022-08-26T04:33:34.420Z,632
2022-08-26T04:34:21.121Z,660
2022-08-26T04:35:22.859Z,692
2022-08-26T04:36:22.377Z,724
2022-08-26T04:37:19.845Z,760
2022-08-26T04:38:20.036Z,796
2022-08-26T04:39:21.880Z,832
2022-08-26T04:40:20.379Z,868
2022-08-26T04:41:23.905Z,908
2022-08-26T04:42:28.400Z,944
2022-08-26T04:43:19.854Z,976
2022-08-26T04:44:19.975Z,1016
2022-08-26T04:45:25.255Z,1056
2022-08-26T04:46:21.480Z,1092
2022-08-26T04:47:21.465Z,1132
2022-08-26T04:48:24.207Z,1172
2022-08-26T04:49:20.782Z,1208
2022-08-26T04:50:20.484Z,1248
2022-08-26T04:51:19.676Z,1284
2022-08-26T04:52:20.434Z,1320
2022-08-26T04:53:19.773Z,1360
2022-08-26T04:54:20.686Z,1396
2022-08-26T04:55:22.158Z,1440
2022-08-26T04:56:19.389Z,1476
2022-08-26T04:57:20.116Z,1520
2022-08-26T04:58:19.536Z,1560
2022-08-26T04:59:24.569Z,1604
2022-08-26T05:00:19.921Z,1644
2022-08-26T05:01:20.045Z,1680
2022-08-26T05:02:19.608Z,1720
2022-08-26T05:03:20.622Z,1756
2022-08-26T05:04:24.399Z,1792
2022-08-26T05:05:20.275Z,1824
2022-08-26T05:06:24.440Z,1864
2022-08-26T05:07:22.210Z,1904
2022-08-26T05:08:20.866Z,1948
2022-08-26T05:09:22.087Z,2000
2022-08-26T05:10:23.073Z,2048
2022-08-26T05:11:20.780Z,2092
2022-08-26T05:12:21.127Z,2140
2022-08-26T05:13:25.332Z,2180
2022-08-26T05:14:19.600Z,2220
2022-08-26T05:15:21.111Z,2264
2022-08-26T05:16:20.139Z,2300
2022-08-26T05:17:22.113Z,2344
2022-08-26T05:18:22.684Z,2384
2022-08-26T05:19:23.530Z,2420
2022-08-26T05:20:22.679Z,2460
2022-08-26T05:21:20.569Z,2492
2022-08-26T05:22:23.066Z,2532
2022-08-26T05:23:19.897Z,2572
2022-08-26T05:24:20.261Z,2616
2022-08-26T05:25:19.287Z,2668
2022-08-26T05:26:28.136Z,2728
2022-08-26T05:27:19.893Z,2772
2022-08-26T05:28:20.289Z,2812
2022-08-26T05:29:19.196Z,2836
2022-08-26T05:30:19.191Z,2856
2022-08-26T05:31:23.203Z,2860
2022-08-26T05:32:19.436Z,2836
2022-08-26T05:33:19.747Z,2832
2022-08-26T05:34:19.819Z,2852
2022-08-26T05:35:20.487Z,2848
2022-08-26T05:36:19.997Z,2784
2022-08-26T05:37:21.553Z,2704
2022-08-26T05:38:19.705Z,2656
2022-08-26T05:39:19.402Z,2664
2022-08-26T05:40:21.917Z,2752
2022-08-26T05:41:21.979Z,2848
2022-08-26T05:42:20.087Z,2888
2022-08-26T05:43:22.398Z,2916
2022-08-26T05:44:21.211Z,2936
2022-08-26T05:45:19.713Z,2920
2022-08-26T05:46:19.759Z,2920
2022-08-26T05:47:21.886Z,2976
2022-08-26T05:48:25.017Z,3040
2022-08-26T05:49:22.431Z,3080
2022-08-26T05:50:19.596Z,3096
2022-08-26T05:51:25.837Z,3104
2022-08-26T05:52:20.965Z,3120
2022-08-26T05:53:22.793Z,3152
2022-08-26T05:54:26.131Z,3224
2022-08-26T05:55:21.024Z,3316
2022-08-26T05:56:19.060Z,3420
2022-08-26T05:57:20.937Z,3508
2022-08-26T05:58:22.621Z,3588
2022-08-26T05:59:29.352Z,3624
2022-08-26T06:00:19.295Z,3620
2022-08-26T06:01:19.295Z,3568
2022-08-26T06:02:21.543Z,3564
2022-08-26T06:03:20.026Z,3620
2022-08-26T06:04:22.164Z,3728
2022-08-26T06:05:20.197Z,3856
2022-08-26T06:06:27.270Z,3952
2022-08-26T06:07:20.746Z,3976
2022-08-26T06:08:23.583Z,3912
2022-08-26T06:09:22.341Z,3712
2022-08-26T06:10:40.021Z,3376
2022-08-26T06:11:26.807Z,3208
2022-08-26T06:12:22.815Z,3108
2022-08-26T06:13:19.926Z,3044
2022-08-26T06:14:20.607Z,3104
2022-08-26T06:15:23.517Z,3248
2022-08-26T06:16:19.914Z,3428
2022-08-26T06:17:19.923Z,3560
2022-08-26T06:18:19.021Z,3656
2022-08-26T06:19:19.457Z,3768
2022-08-26T06:20:19.721Z,3856
2022-08-26T06:21:19.783Z,3956
2022-08-26T06:22:25.855Z,4012
2022-08-26T06:23:19.183Z,4040
2022-08-26T06:24:19.714Z,4068
2022-08-26T06:25:19.427Z,4144
2022-08-26T06:26:19.231Z,4248
2022-08-26T06:27:21.758Z,4364
2022-08-26T06:28:20.543Z,4488
2022-08-26T06:29:30.781Z,4568
2022-08-26T06:30:21.011Z,4580
2022-08-26T06:31:19.367Z,4588
2022-08-26T06:32:19.141Z,4600
2022-08-26T06:33:19.583Z,4632
2022-08-26T06:34:20.262Z,4676
2022-08-26T06:35:19.138Z,4740
2022-08-26T06:36:23.464Z,4820
2022-08-26T06:37:20.573Z,4896
2022-08-26T06:38:18.721Z,4964
2022-08-26T06:39:19.102Z,4996
2022-08-26T06:40:19.116Z,5024
2022-08-26T06:41:19.781Z,5020
2022-08-26T06:42:19.481Z,5012
2022-08-26T06:43:20.365Z,5020
2022-08-26T06:44:19.094Z,5012
2022-08-26T06:45:19.384Z,5096
2022-08-26T06:46:19.521Z,5544
2022-08-26T06:47:18.835Z,6176
2022-08-26T06:48:19.348Z,5948
2022-08-26T06:49:29.065Z,6176
2022-08-26T06:50:19.019Z,7384
2022-08-26T06:51:18.808Z,7852
2022-08-26T06:52:26.982Z,8416
2022-08-26T06:53:20.689Z,7252
2022-08-26T06:54:18.793Z,5668
2022-08-26T06:55:20.725Z,7764
2022-08-26T06:56:19.643Z,10100
2022-08-26T06:57:22.503Z,8188
2022-08-26T06:58:22.155Z,6972
2022-08-26T06:59:20.069Z,6472
2022-08-26T07:00:22.584Z,5904
2022-08-26T07:01:20.635Z,5668
2022-08-26T07:02:22.976Z,6020
2022-08-26T07:03:20.625Z,8488
2022-08-26T07:04:24.792Z,12260
2022-08-26T07:05:19.033Z,16032
2022-08-26T07:06:21.326Z,23872
2022-08-26T07:07:21.889Z,27040
2022-08-26T07:08:19.479Z,24992
2022-08-26T07:09:20.844Z,22592
2022-08-26T07:10:19.005Z,20256
2022-08-26T07:11:19.257Z,13256
2022-08-26T07:12:20.215Z,7980
2022-08-26T07:13:32.885Z,6656
2022-08-26T07:14:23.319Z,6360
2022-08-26T07:15:19.539Z,6140
2022-08-26T07:16:21.612Z,5916
2022-08-26T07:17:22.565Z,5636
2022-08-26T07:18:18.759Z,5492
2022-08-26T07:19:33.009Z,5540
2022-08-26T07:20:19.526Z,5480
2022-08-26T07:21:20.701Z,5464
2022-08-26T07:22:19.483Z,5384
2022-08-26T07:23:21.572Z,5364
2022-08-26T07:24:19.830Z,5372
2022-08-26T07:25:21.683Z,5424
2022-08-26T07:26:19.322Z,5500
2022-08-26T07:27:19.248Z,5576
2022-08-26T07:28:18.752Z,5704
2022-08-26T07:29:19.565Z,5812
2022-08-26T07:30:21.694Z,5836
2022-08-26T07:31:19.471Z,5768
2022-08-26T07:32:18.930Z,5632
2022-08-26T07:33:18.759Z,5416
2022-08-26T07:34:20.349Z,5172
2022-08-26T07:35:19.276Z,4984
2022-08-26T07:36:19.013Z,4888
2022-08-26T07:37:20.082Z,4844
2022-08-26T07:38:20.213Z,4936
2022-08-26T07:39:20.432Z,5064
2022-08-26T07:40:20.916Z,5388
2022-08-26T07:41:19.068Z,5676
2022-08-26T07:42:20.605Z,5816
2022-08-26T07:43:19.737Z,5848
2022-08-26T07:44:19.009Z,5820
2022-08-26T07:45:18.764Z,5780
2022-08-26T07:46:32.775Z,5748
2022-08-26T07:47:32.320Z,5796
2022-08-26T07:48:23.562Z,5820
2022-08-26T07:49:19.858Z,5828
2022-08-26T07:50:19.835Z,5924
2022-08-26T07:51:19.009Z,5996
2022-08-26T07:52:26.855Z,6008
2022-08-26T07:53:24.140Z,6000
2022-08-26T07:54:21.026Z,6048
2022-08-26T07:55:19.017Z,6076
2022-08-26T07:56:18.768Z,6076
2022-08-26T07:57:21.219Z,6076
2022-08-26T07:58:18.973Z,5980
2022-08-26T07:59:23.443Z,5816
2022-08-26T08:00:20.407Z,5568
2022-08-26T08:01:20.937Z,5440
2022-08-26T08:02:18.859Z,5536
2022-08-26T08:03:21.260Z,5648
2022-08-26T08:04:27.922Z,5684
2022-08-26T08:05:21.745Z,5852
2022-08-26T08:06:18.788Z,5884
2022-08-26T08:07:19.037Z,5976
2022-08-26T08:08:36.391Z,6060
2022-08-26T08:09:22.242Z,6120
2022-08-26T08:10:21.017Z,6248
2022-08-26T08:11:18.773Z,6220
2022-08-26T08:12:22.843Z,6036
2022-08-26T08:13:23.581Z,5608
2022-08-26T08:14:22.074Z,5656
2022-08-26T08:15:19.382Z,5912
2022-08-26T08:16:19.647Z,6032
2022-08-26T08:17:21.372Z,5396
2022-08-26T08:18:25.449Z,5620
2022-08-26T08:19:19.202Z,5844
2022-08-26T08:20:19.076Z,5808
2022-08-26T08:21:29.096Z,5548
2022-08-26T08:22:26.476Z,5568
2022-08-26T08:23:18.664Z,5700
2022-08-26T08:24:18.613Z,5896
2022-08-26T08:25:20.305Z,6628
2022-08-26T08:26:21.220Z,6580
2022-08-26T08:27:26.378Z,6320
2022-08-26T08:28:20.019Z,6408
2022-08-26T08:29:19.485Z,6472
2022-08-26T08:30:25.753Z,6364
2022-08-26T08:31:56.331Z,6136
2022-08-26T08:32:21.846Z,6148
2022-08-26T08:33:20.998Z,6044
2022-08-26T08:34:21.415Z,5672
2022-08-26T08:35:19.050Z,5388
2022-08-26T08:36:25.521Z,5348
2022-08-26T08:37:18.833Z,5208
2022-08-26T08:38:19.319Z,5088
2022-08-26T08:39:19.037Z,5044
2022-08-26T08:40:19.199Z,4972
2022-08-26T08:41:18.528Z,5200
2022-08-26T08:42:18.781Z,5488
2022-08-26T08:43:19.457Z,6056
2022-08-26T08:44:20.405Z,6356
2022-08-26T08:45:21.424Z,6684
2022-08-26T08:46:19.642Z,6892
2022-08-26T08:47:19.296Z,6492
2022-08-26T08:48:19.063Z,6040
2022-08-26T08:49:20.989Z,5968
2022-08-26T08:50:19.675Z,6064
2022-08-26T08:51:20.259Z,6024
2022-08-26T08:52:19.303Z,5900
2022-08-26T08:53:18.898Z,5776
2022-08-26T08:54:19.052Z,5504
2022-08-26T08:55:23.576Z,5472
2022-08-26T08:56:19.054Z,5468
2022-08-26T08:57:19.806Z,5468
2022-08-26T08:58:23.918Z,5460
2022-08-26T08:59:19.752Z,5432
2022-08-26T09:00:19.101Z,5408
2022-08-26T09:01:19.776Z,5384
2022-08-26T09:02:21.375Z,5384
2022-08-26T09:03:18.813Z,5460
2022-08-26T09:04:26.194Z,5644
2022-08-26T09:05:22.203Z,5796
2022-08-26T09:06:19.773Z,6044
2022-08-26T09:07:19.930Z,6352
2022-08-26T09:08:21.877Z,6692
2022-08-26T09:09:19.156Z,6544
2022-08-26T09:10:19.679Z,6716
2022-08-26T09:11:19.480Z,6740
2022-08-26T09:12:29.579Z,6072
2022-08-26T09:13:31.510Z,5000
2022-08-26T09:14:19.647Z,3988
2022-08-26T09:15:19.324Z,3376
2022-08-26T09:16:22.615Z,3032
2022-08-26T09:17:18.972Z,2932
2022-08-26T09:18:20.477Z,2832
2022-08-26T09:19:21.467Z,2708
2022-08-26T09:20:19.159Z,2616
2022-08-26T09:21:20.300Z,2508
2022-08-26T09:22:19.406Z,2436
2022-08-26T09:23:20.532Z,2380
2022-08-26T09:24:24.416Z,2332
2022-08-26T09:25:20.830Z,2320
2022-08-26T09:26:19.407Z,2276
2022-08-26T09:27:19.106Z,2252
2022-08-26T09:28:20.462Z,2252
2022-08-26T09:30:20.643Z,2340
2022-08-26T09:31:19.290Z,2424
2022-08-26T09:32:18.882Z,2504
2022-08-26T09:33:21.984Z,2632
2022-08-26T09:34:23.977Z,2816
2022-08-26T09:35:19.332Z,3004
2022-08-26T09:36:19.240Z,3244
2022-08-26T09:37:19.620Z,3488
2022-08-26T09:38:20.893Z,3708
2022-08-26T09:39:19.943Z,3888
2022-08-26T09:40:20.301Z,4080
2022-08-26T09:41:19.822Z,4268
2022-08-26T09:42:21.195Z,4464
2022-08-26T09:43:25.260Z,4664
2022-08-26T09:44:21.854Z,4852
2022-08-26T09:45:19.692Z,5064
2022-08-26T09:46:19.812Z,5212
2022-08-26T09:47:19.246Z,5332
2022-08-26T09:48:25.336Z,5484
2022-08-26T09:49:19.541Z,5588
2022-08-26T09:50:19.591Z,5696
2022-08-26T09:51:23.104Z,5856
2022-08-26T09:52:18.838Z,5984
2022-08-26T09:53:25.154Z,6136
2022-08-26T09:54:35.856Z,6336
2022-08-26T09:55:20.133Z,6432
2022-08-26T09:56:19.108Z,6528
2022-08-26T09:57:19.422Z,6548
2022-08-26T09:58:20.109Z,6528
2022-08-26T09:59:23.404Z,6572
2022-08-26T10:00:19.098Z,6644
2022-08-26T10:01:21.862Z,6700
2022-08-26T10:02:22.472Z,6740
2022-08-26T10:03:25.133Z,6804
2022-08-26T10:04:20.183Z,6904
2022-08-26T10:05:19.352Z,7056
2022-08-26T10:06:21.070Z,7228
2022-08-26T10:07:22.942Z,7464
2022-08-26T10:08:19.522Z,7692
2022-08-26T10:09:20.108Z,7976
2022-08-26T10:10:18.832Z,8312
2022-08-26T10:11:19.184Z,8680
2022-08-26T10:12:20.172Z,9092
2022-08-26T10:13:19.719Z,9476
2022-08-26T10:14:20.215Z,9936
2022-08-26T10:15:19.238Z,10400
2022-08-26T10:16:20.048Z,10832
2022-08-26T10:17:19.184Z,11184
2022-08-26T10:18:19.842Z,11436
2022-08-26T10:19:20.340Z,11520
2022-08-26T10:20:30.561Z,11444
2022-08-26T10:21:24.050Z,11324
2022-08-26T10:22:19.786Z,11036
2022-08-26T10:23:20.464Z,10624
2022-08-26T10:24:19.173Z,10156
2022-08-26T10:25:18.836Z,9672
2022-08-26T10:26:20.333Z,9140
2022-08-26T10:27:18.580Z,8644
2022-08-26T10:28:19.092Z,8148
2022-08-26T10:29:19.666Z,7668
2022-08-26T10:30:21.238Z,7208
2022-08-26T10:31:27.432Z,6796
2022-08-26T10:32:21.079Z,6468
2022-08-26T10:33:20.363Z,6224
2022-08-26T10:34:23.625Z,6040
2022-08-26T10:35:18.642Z,5908
2022-08-26T10:36:25.918Z,5744
2022-08-26T10:37:23.442Z,5732
2022-08-26T10:38:20.123Z,5832
2022-08-26T10:39:21.091Z,5768
2022-08-26T10:40:19.942Z,5496
2022-08-26T10:41:22.670Z,5644
2022-08-26T10:42:20.681Z,5752
2022-08-26T10:43:19.395Z,5744
2022-08-26T10:44:20.864Z,5728
2022-08-26T10:45:22.060Z,5752
2022-08-26T10:46:19.681Z,5828
2022-08-26T10:47:20.366Z,6024
2022-08-26T10:48:20.303Z,6220
2022-08-26T10:49:19.790Z,6304
2022-08-26T10:50:23.154Z,6564
2022-08-26T10:51:20.079Z,6848
2022-08-26T10:52:24.108Z,7032
2022-08-26T10:53:19.117Z,7060
2022-08-26T10:54:19.933Z,6984
2022-08-26T10:55:19.020Z,6844
2022-08-26T10:56:26.215Z,6664
2022-08-26T10:57:21.140Z,6692
2022-08-26T10:58:36.538Z,6852
2022-08-26T10:59:19.887Z,6888
2022-08-26T11:00:19.766Z,6816
2022-08-26T11:01:25.211Z,6724
2022-08-26T11:02:22.877Z,6716
2022-08-26T11:03:28.478Z,6736
2022-08-26T11:04:20.283Z,6776
2022-08-26T11:05:19.597Z,6784
2022-08-26T11:06:19.471Z,6776
2022-08-26T11:07:19.161Z,6772
2022-08-26T11:08:19.765Z,6732
2022-08-26T11:09:28.849Z,6772
2022-08-26T11:10:19.579Z,6800
2022-08-26T11:11:23.961Z,6764
2022-08-26T11:12:19.550Z,6716
2022-08-26T11:13:19.175Z,6752
2022-08-26T11:14:34.096Z,6652
2022-08-26T11:15:26.819Z,6508
2022-08-26T11:16:19.521Z,6392
2022-08-26T11:17:18.666Z,6384
2022-08-26T11:18:20.788Z,6400
2022-08-26T11:19:36.226Z,6344
2022-08-26T11:20:22.354Z,6300
2022-08-26T11:21:24.694Z,6296
2022-08-26T11:22:19.932Z,6308
2022-08-26T11:23:19.664Z,6280
2022-08-26T11:24:19.212Z,6204
2022-08-26T11:25:20.498Z,6160
2022-08-26T11:26:59.804Z,6044
2022-08-26T11:27:26.399Z,6008
2022-08-26T11:28:20.295Z,5916
2022-08-26T11:29:22.219Z,5792
2022-08-26T11:30:26.460Z,5744
2022-08-26T11:31:19.495Z,5736
2022-08-26T11:32:19.917Z,5624
2022-08-26T11:33:22.767Z,5400
2022-08-26T11:34:19.023Z,5064
2022-08-26T11:35:22.717Z,4748
2022-08-26T11:36:19.291Z,4544
2022-08-26T11:38:20.710Z,4184
2022-08-26T11:39:18.946Z,4068
2022-08-26T11:40:20.819Z,3988
2022-08-26T11:41:19.678Z,3916
2022-08-26T11:42:22.704Z,3924
2022-08-26T11:43:20.536Z,3996
2022-08-26T11:44:20.044Z,4064
2022-08-26T11:45:19.791Z,4172
2022-08-26T11:46:19.147Z,4224
2022-08-26T11:47:21.399Z,4280
2022-08-26T11:48:19.220Z,4360
2022-08-26T11:49:19.526Z,4452
2022-08-26T11:50:18.827Z,4476
2022-08-26T11:51:20.752Z,4444
2022-08-26T11:52:20.723Z,4364
2022-08-26T11:53:21.313Z,4328
2022-08-26T11:54:37.705Z,4496
2022-08-26T11:55:23.201Z,4576
2022-08-26T11:56:20.281Z,4716
2022-08-26T11:57:19.733Z,4856
2022-08-26T11:58:20.584Z,4944
2022-08-26T11:59:19.231Z,4968
2022-08-26T12:00:27.310Z,5032
2022-08-26T12:01:21.576Z,5084
2022-08-26T12:02:20.339Z,5084
2022-08-26T12:03:19.919Z,5060
2022-08-26T12:04:20.738Z,4984
2022-08-26T12:05:18.989Z,4904
2022-08-26T12:06:21.276Z,4812
2022-08-26T12:07:25.924Z,4708
2022-08-26T12:08:18.971Z,4608
2022-08-26T12:09:21.483Z,4512
2022-08-26T12:10:19.402Z,4472
2022-08-26T12:11:19.674Z,4520
2022-08-26T12:12:19.263Z,4568
2022-08-26T12:13:20.388Z,4644
2022-08-26T12:14:20.542Z,4720
2022-08-26T12:15:19.514Z,4788
2022-08-26T12:16:20.548Z,4868
2022-08-26T12:17:22.436Z,4920
2022-08-26T12:18:28.660Z,4944
2022-08-26T12:19:19.754Z,4940
2022-08-26T12:20:20.484Z,4916
2022-08-26T12:21:20.874Z,4896
2022-08-26T12:22:19.056Z,4888
2022-08-26T12:23:20.662Z,4884
2022-08-26T12:24:22.327Z,4868
2022-08-26T12:25:20.819Z,4836
2022-08-26T12:26:18.968Z,4788
2022-08-26T12:27:19.928Z,4752
2022-08-26T12:28:25.612Z,4728
2022-08-26T12:29:33.397Z,4736
2022-08-26T12:30:24.058Z,4768
2022-08-26T12:31:22.203Z,4832
2022-08-26T12:32:19.201Z,4940
2022-08-26T12:33:29.832Z,5080
2022-08-26T12:34:25.917Z,5200
2022-08-26T12:35:19.166Z,5320
2022-08-26T12:36:19.541Z,5432
2022-08-26T12:37:21.379Z,5512
2022-08-26T12:38:19.729Z,5556
2022-08-26T12:39:18.946Z,5584
2022-08-26T12:40:19.283Z,5600
2022-08-26T12:41:18.689Z,5620
2022-08-26T12:42:19.185Z,5640
2022-08-26T12:43:19.192Z,5656
2022-08-26T12:44:19.202Z,5676
2022-08-26T12:45:19.184Z,5700
2022-08-26T12:46:19.032Z,5712
2022-08-26T12:47:44.552Z,5716
2022-08-26T12:48:18.922Z,5716
2022-08-26T12:49:19.459Z,5696
2022-08-26T12:50:19.434Z,5688
2022-08-26T12:51:18.918Z,5680
2022-08-26T12:52:18.915Z,5660
2022-08-26T12:53:19.236Z,5628
2022-08-26T12:54:18.922Z,5600
2022-08-26T12:55:21.719Z,5556
2022-08-26T12:56:19.169Z,5512
2022-08-26T12:57:19.433Z,5464
2022-08-26T12:58:19.426Z,5424
2022-08-26T12:59:21.900Z,5388
2022-08-26T13:00:28.570Z,5332
2022-08-26T13:01:19.734Z,5292
2022-08-26T13:02:19.548Z,5248
2022-08-26T13:03:21.424Z,5200
2022-08-26T13:04:19.154Z,5152
2022-08-26T13:05:19.271Z,5112
2022-08-26T13:06:22.900Z,5088
2022-08-26T13:07:18.900Z,5084
2022-08-26T13:08:19.154Z,5084
2022-08-26T13:09:19.413Z,5092
2022-08-26T13:10:18.895Z,5104
2022-08-26T13:11:19.156Z,5108
2022-08-26T13:12:19.150Z,5124
2022-08-26T13:13:18.899Z,5136
2022-08-26T13:14:28.825Z,5148
2022-08-26T13:15:18.650Z,5164
2022-08-26T13:16:19.425Z,5188
2022-08-26T13:17:19.412Z,5216
2022-08-26T13:18:19.148Z,5256
2022-08-26T13:19:18.887Z,5304
2022-08-26T13:20:18.891Z,5364
2022-08-26T13:21:19.142Z,5436
2022-08-26T13:22:19.158Z,5524
2022-08-26T13:23:19.804Z,5624
2022-08-26T13:24:18.883Z,5736
2022-08-26T13:25:24.156Z,5876
2022-08-26T13:26:18.881Z,6000
2022-08-26T13:27:19.146Z,6144
2022-08-26T13:28:18.628Z,6292
2022-08-26T13:29:19.058Z,6448
2022-08-26T13:30:20.301Z,6620
2022-08-26T13:31:20.127Z,6788
2022-08-26T13:32:19.872Z,6972
2022-08-26T13:33:22.847Z,7184
2022-08-26T13:34:19.138Z,7372
2022-08-26T13:35:19.143Z,7588
2022-08-26T13:36:19.393Z,7800
2022-08-26T13:37:19.394Z,8000
2022-08-26T13:38:38.548Z,8256
2022-08-26T13:39:19.130Z,8384
2022-08-26T13:40:19.002Z,8564
2022-08-26T13:41:32.009Z,8764
2022-08-26T13:42:19.125Z,8872
2022-08-26T13:43:18.620Z,8992
2022-08-26T13:44:19.389Z,9104
2022-08-26T13:45:19.383Z,9204
2022-08-26T13:46:20.735Z,9304
2022-08-26T13:47:19.394Z,9404
2022-08-26T13:48:23.858Z,9524
2022-08-26T13:49:19.131Z,9636
2022-08-26T13:50:19.167Z,9772
2022-08-26T13:51:19.400Z,9908
2022-08-26T13:52:18.659Z,10024
2022-08-26T13:53:19.136Z,10132
2022-08-26T13:54:19.135Z,10248
2022-08-26T13:55:19.404Z,10380
2022-08-26T13:56:19.172Z,10496
2022-08-26T13:57:19.566Z,10616
2022-08-26T13:58:19.417Z,10736
2022-08-26T13:59:19.137Z,10860